Time,TemperatureF,DewpointF,PressureIn,WindDirection,WindDirectionDegrees,WindSpeedMPH,WindSpeedGustMPH,Humidity,HourlyPrecipIn,Conditions,Clouds,dailyrainin,SolarRadiationWatts/m^2,SoftwareType,DateUTC
2013-02-21 00:00:00,10.0,2.0,-100.00,NE,35,8.0,14.0,70,0.00,,,0.00,0.000000,,2013-02-21 06:00:00,
2013-02-21 00:01:00,10.0,2.0,-100.00,NE,35,8.0,14.0,70,0.00,,,0.00,0.000000,,2013-02-21 06:01:00,
2013-02-21 00:31:00,8.0,-1.0,-100.00,ENE,60,3.0,12.0,66,0.00,,,0.00,0.000000,,2013-02-21 06:31:00,
2013-02-21 00:41:00,8.0,-1.0,-100.00,ENE,60,3.0,12.0,66,0.00,,,0.00,0.000000,,2013-02-21 06:41:00,
2013-02-21 00:51:00,8.0,-1.0,-100.00,ENE,60,3.0,12.0,66,0.00,,,0.00,0.000000,,2013-02-21 06:51:00,
2013-02-21 01:01:00,8.0,-1.0,-100.00,ENE,60,3.0,12.0,66,0.00,,,0.00,0.000000,,2013-02-21 07:01:00,
2013-02-21 01:32:00,5.0,0.0,-100.00,NE,45,3.0,4.0,79,0.00,,,-99.99,0.000000,,2013-02-21 07:32:00,
2013-02-21 01:42:00,5.0,0.0,-100.00,NE,45,3.0,4.0,79,0.00,,,-99.99,0.000000,,2013-02-21 07:42:00,
2013-02-21 01:52:00,5.0,0.0,-100.00,NE,45,3.0,4.0,79,0.00,,,-99.99,0.000000,,2013-02-21 07:52:00,
2013-02-21 02:01:00,5.0,0.0,-100.00,NE,45,3.0,4.0,79,0.00,,,-99.99,0.000000,,2013-02-21 08:01:00,
2013-02-21 02:32:00,-1.0,-6.0,-100.00,SSW,211,2.0,3.0,80,0.00,,,-99.99,0.000000,,2013-02-21 08:32:00,
2013-02-21 02:42:00,-1.0,-6.0,-100.00,SSW,211,2.0,3.0,80,0.00,,,-99.99,0.000000,,2013-02-21 08:42:00,
2013-02-21 02:52:00,-1.0,-6.0,-100.00,SSW,211,2.0,3.0,80,0.00,,,-99.99,0.000000,,2013-02-21 08:52:00,
2013-02-21 03:01:00,-1.0,-6.0,-100.00,SSW,211,2.0,3.0,80,0.00,,,-99.99,0.000000,,2013-02-21 09:01:00,
2013-02-21 03:32:00,0.0,-4.0,-100.00,NE,34,3.0,4.0,83,0.00,,,0.00,0.000000,,2013-02-21 09:32:00,
2013-02-21 03:42:00,0.0,-4.0,-100.00,NE,34,3.0,4.0,83,0.00,,,0.00,0.000000,,2013-02-21 09:42:00,
2013-02-21 03:52:00,0.0,-4.0,-100.00,NE,34,3.0,4.0,83,0.00,,,0.00,0.000000,,2013-02-21 09:52:00,
2013-02-21 04:01:00,0.0,-4.0,-100.00,NE,34,3.0,4.0,83,0.00,,,0.00,0.000000,,2013-02-21 10:01:00,
2013-02-21 04:31:00,-5.0,-9.0,-100.00,SW,225,2.0,4.0,81,0.00,,,0.00,0.000000,,2013-02-21 10:31:00,
2013-02-21 05:31:00,-7.0,-13.0,-100.00,WSW,251,2.0,4.0,73,0.00,,,0.00,0.000000,,2013-02-21 11:31:00,
2013-02-21 06:32:00,-7.0,-13.0,-100.00,WNW,293,3.0,5.0,73,0.00,,,0.00,0.000000,,2013-02-21 12:32:00,
2013-02-21 08:32:00,5.0,-1.0,-100.00,SSW,211,4.0,10.0,77,-99.99,,,0.00,88.000000,,2013-02-21 14:32:00,
2013-02-21 08:42:00,5.0,-1.0,-100.00,SSW,211,4.0,10.0,77,-99.99,,,0.00,88.000000,,2013-02-21 14:42:00,
2013-02-21 08:52:00,5.0,-1.0,-100.00,SSW,211,4.0,10.0,77,-99.99,,,0.00,88.000000,,2013-02-21 14:52:00,
2013-02-21 09:01:00,5.0,-1.0,-100.00,SSW,211,4.0,10.0,77,-99.99,,,0.00,88.000000,,2013-02-21 15:01:00,
2013-02-21 09:32:00,8.0,1.0,-100.00,NNE,20,5.0,6.0,71,0.00,,,0.00,257.000000,,2013-02-21 15:32:00,
2013-02-21 09:42:00,8.0,1.0,-100.00,NNE,20,5.0,6.0,71,0.00,,,0.00,257.000000,,2013-02-21 15:42:00,
2013-02-21 09:52:00,8.0,1.0,-100.00,NNE,20,5.0,6.0,71,0.00,,,0.00,257.000000,,2013-02-21 15:52:00,
2013-02-21 10:01:00,8.0,1.0,-100.00,NNE,20,5.0,6.0,71,0.00,,,0.00,257.000000,,2013-02-21 16:01:00,
2013-02-21 10:32:00,13.0,2.0,-100.00,ENE,59,6.0,8.0,61,0.00,,,0.00,426.000000,,2013-02-21 16:32:00,
2013-02-21 10:42:00,13.0,2.0,-100.00,ENE,59,6.0,8.0,61,0.00,,,0.00,426.000000,,2013-02-21 16:42:00,
2013-02-21 10:52:00,13.0,2.0,-100.00,ENE,59,6.0,8.0,61,0.00,,,0.00,426.000000,,2013-02-21 16:52:00,
2013-02-21 11:01:00,13.0,2.0,-100.00,ENE,59,6.0,8.0,61,0.00,,,0.00,426.000000,,2013-02-21 17:01:00,
2013-02-21 11:32:00,16.0,4.0,-100.00,ENE,63,5.0,10.0,58,0.00,,,0.00,524.000000,,2013-02-21 17:32:00,
2013-02-21 11:42:00,16.0,4.0,-100.00,ENE,63,5.0,10.0,58,0.00,,,0.00,524.000000,,2013-02-21 17:42:00,
2013-02-21 11:52:00,16.0,4.0,-100.00,ENE,63,5.0,10.0,58,0.00,,,0.00,524.000000,,2013-02-21 17:52:00,
2013-02-21 12:02:00,16.0,4.0,-100.00,ENE,63,5.0,10.0,58,0.00,,,0.00,524.000000,,2013-02-21 18:02:00,
2013-02-21 13:32:00,20.0,5.0,-100.00,ENE,73,7.0,11.0,52,-99.99,,,0.00,543.000000,,2013-02-21 19:32:00,
2013-02-21 13:42:00,20.0,5.0,-100.00,ENE,73,7.0,11.0,52,-99.99,,,0.00,543.000000,,2013-02-21 19:42:00,
2013-02-21 13:52:00,20.0,5.0,-100.00,ENE,73,7.0,11.0,52,-99.99,,,0.00,543.000000,,2013-02-21 19:52:00,
2013-02-21 14:01:00,20.0,5.0,-100.00,ENE,73,7.0,11.0,52,-99.99,,,0.00,543.000000,,2013-02-21 20:01:00,
2013-02-21 14:32:00,22.0,6.0,-100.00,ENE,70,9.0,13.0,50,0.00,,,0.00,425.000000,,2013-02-21 20:32:00,
2013-02-21 14:42:00,22.0,6.0,-100.00,ENE,70,9.0,13.0,50,0.00,,,0.00,425.000000,,2013-02-21 20:42:00,
2013-02-21 14:53:00,22.0,6.0,-100.00,ENE,70,9.0,13.0,50,0.00,,,0.00,425.000000,,2013-02-21 20:53:00,
2013-02-21 15:02:00,22.0,6.0,-100.00,ENE,70,9.0,13.0,50,0.00,,,0.00,425.000000,,2013-02-21 21:02:00,
2013-02-21 15:32:00,22.0,7.0,-100.00,ENE,77,7.0,12.0,51,0.00,,,0.00,298.000000,,2013-02-21 21:32:00,
2013-02-21 15:42:00,22.0,7.0,-100.00,ENE,77,7.0,12.0,51,0.00,,,0.00,298.000000,,2013-02-21 21:42:00,
2013-02-21 15:52:00,22.0,7.0,-100.00,ENE,77,7.0,12.0,51,0.00,,,0.00,298.000000,,2013-02-21 21:52:00,
2013-02-21 16:01:00,22.0,7.0,-100.00,ENE,77,7.0,12.0,51,0.00,,,0.00,298.000000,,2013-02-21 22:01:00,
2013-02-21 16:32:00,23.0,8.0,-100.00,East,89,4.0,11.0,53,0.00,,,0.00,169.000000,,2013-02-21 22:32:00,
2013-02-21 16:42:00,23.0,8.0,-100.00,East,89,4.0,11.0,53,0.00,,,0.00,169.000000,,2013-02-21 22:42:00,
2013-02-21 16:52:00,23.0,8.0,-100.00,East,89,4.0,11.0,53,0.00,,,0.00,169.000000,,2013-02-21 22:52:00,
2013-02-21 17:01:00,23.0,8.0,-100.00,East,89,4.0,11.0,53,0.00,,,0.00,169.000000,,2013-02-21 23:01:00,
2013-02-21 17:32:00,22.0,10.0,-100.00,ESE,112,6.0,9.0,58,0.00,,,0.00,67.000000,,2013-02-21 23:32:00,
2013-02-21 17:42:00,22.0,10.0,-100.00,ESE,112,6.0,9.0,58,0.00,,,0.00,67.000000,,2013-02-21 23:42:00,
2013-02-21 17:52:00,22.0,10.0,-100.00,ESE,112,6.0,9.0,58,0.00,,,0.00,67.000000,,2013-02-21 23:52:00,
2013-02-21 18:01:00,22.0,10.0,-100.00,ESE,112,6.0,9.0,58,0.00,,,0.00,67.000000,,2013-02-22 00:01:00,
2013-02-21 18:32:00,21.0,10.0,-100.00,East,97,6.0,9.0,62,0.00,,,0.00,6.000000,,2013-02-22 00:32:00,
2013-02-21 18:42:00,21.0,10.0,-100.00,East,97,6.0,9.0,62,0.00,,,0.00,6.000000,,2013-02-22 00:42:00,
2013-02-21 18:52:00,21.0,10.0,-100.00,East,97,6.0,9.0,62,0.00,,,0.00,6.000000,,2013-02-22 00:52:00,
2013-02-21 19:01:00,21.0,10.0,-100.00,East,97,6.0,9.0,62,0.00,,,0.00,6.000000,,2013-02-22 01:01:00,
2013-02-21 20:32:00,21.0,15.0,-100.00,East,88,8.0,13.0,76,-99.99,,,0.00,0.000000,,2013-02-22 02:32:00,
2013-02-21 20:42:00,21.0,15.0,-100.00,East,88,8.0,13.0,76,-99.99,,,0.00,0.000000,,2013-02-22 02:42:00,
2013-02-21 20:52:00,21.0,15.0,-100.00,East,88,8.0,13.0,76,-99.99,,,0.00,0.000000,,2013-02-22 02:52:00,
2013-02-21 21:01:00,21.0,15.0,-100.00,East,88,8.0,13.0,76,-99.99,,,0.00,0.000000,,2013-02-22 03:01:00,
2013-02-21 21:32:00,22.0,17.0,-100.00,East,81,16.0,23.0,80,0.00,,,0.00,0.000000,,2013-02-22 03:32:00,
2013-02-21 21:42:00,22.0,17.0,-100.00,East,81,16.0,23.0,80,0.00,,,0.00,0.000000,,2013-02-22 03:42:00,
2013-02-21 21:52:00,22.0,17.0,-100.00,East,81,16.0,23.0,80,0.00,,,0.00,0.000000,,2013-02-22 03:52:00,
2013-02-21 22:01:00,22.0,17.0,-100.00,East,81,16.0,23.0,80,0.00,,,0.00,0.000000,,2013-02-22 04:01:00,
2013-02-21 22:32:00,22.0,18.0,-100.00,East,81,16.0,25.0,86,0.00,,,0.00,0.000000,,2013-02-22 04:32:00,
2013-02-21 22:42:00,22.0,18.0,-100.00,East,81,16.0,25.0,86,0.00,,,0.00,0.000000,,2013-02-22 04:42:00,
2013-02-21 22:52:00,22.0,18.0,-100.00,East,81,16.0,25.0,86,0.00,,,0.00,0.000000,,2013-02-22 04:52:00,
2013-02-21 23:02:00,22.0,18.0,-100.00,East,81,16.0,25.0,86,0.00,,,0.00,0.000000,,2013-02-22 05:02:00,
2013-02-21 23:32:00,21.0,18.0,-100.00,East,84,14.0,27.0,88,0.00,,,0.00,0.000000,,2013-02-22 05:32:00,
2013-02-21 23:42:00,21.0,18.0,-100.00,East,84,14.0,27.0,88,0.00,,,0.00,0.000000,,2013-02-22 05:42:00,
2013-02-21 23:52:00,21.0,18.0,-100.00,East,84,14.0,27.0,88,0.00,,,0.00,0.000000,,2013-02-22 05:52:00,